Time;durP1;ratioP1;P1;durP2;ratioP2;P2;SDS_P1;SDS_P2;PMS_P1;PMS_P2;Temp;Humidity;BMP_temperature;BMP_pressure;BME280_temperature;BME280_humidity;BME280_pressure;Samples;Min_cycle;Max_cycle;Signal;HPM_P1;HPM_P2
2021/11/05 00:01:17;;;;;;;5.40;2.60;;;;;;;7.90;65.72;99247.27;114110;1194;111983;-63
2021/11/05 00:04:04;;;;;;;5.30;3.00;;;;;;;7.90;65.55;99243.98;113919;1195;137063;-63
2021/11/05 00:06:51;;;;;;;3.60;2.70;;;;;;;7.89;65.65;99252.83;113830;1195;108449;-62
2021/11/05 00:09:40;;;;;;;4.00;2.60;;;;;;;7.88;65.50;99261.00;113542;1195;137400;-62
2021/11/05 00:12:27;;;;;;;4.30;2.60;;;;;;;7.87;65.49;99265.16;114739;1194;95817;-62
2021/11/05 00:15:15;;;;;;;3.80;2.70;;;;;;;7.87;65.58;99280.23;113947;1194;137437;-62
2021/11/05 00:18:01;;;;;;;;;;;;;;;7.88;65.45;99278.98;114756;1193;108663;-63
2021/11/05 00:20:48;;;;;;;3.20;2.60;;;;;;;7.88;65.39;99292.11;114100;1195;123874;-62
2021/11/05 00:23:35;;;;;;;5.00;2.70;;;;;;;7.90;65.28;99276.15;113800;1194;97509;-63
2021/11/05 00:26:21;;;;;;;5.00;2.70;;;;;;;7.90;65.25;99285.33;114627;1194;137526;-63
2021/11/05 00:29:09;;;;;;;5.60;2.70;;;;;;;7.90;65.28;99294.51;114751;1194;111934;-62
2021/11/05 00:31:55;;;;;;;4.20;2.30;;;;;;;7.89;65.14;99287.24;113734;1195;137435;-63
2021/11/05 00:34:42;;;;;;;3.70;2.50;;;;;;;7.91;64.83;99301.24;114734;1194;107519;-63
2021/11/05 00:37:29;;;;;;;3.10;2.20;;;;;;;7.92;64.85;99285.96;114538;1194;95818;-63
2021/11/05 00:40:16;;;;;;;4.20;2.70;;;;;;;7.91;64.77;99279.61;113267;1195;136887;-62
2021/11/05 00:43:05;;;;;;;3.40;2.30;;;;;;;7.93;64.69;99272.45;113386;1195;111179;-62
2021/11/05 00:45:54;;;;;;;3.50;2.20;;;;;;;7.94;64.60;99284.35;114182;1194;137588;-62
2021/11/05 00:48:41;;;;;;;3.50;2.40;;;;;;;7.94;64.46;99284.34;113352;1194;108512;-62
2021/11/05 00:51:28;;;;;;;3.00;2.20;;;;;;;7.95;64.61;99272.52;113521;1195;137538;-64
2021/11/05 00:54:15;;;;;;;2.50;2.20;;;;;;;7.93;64.52;99269.16;113532;1194;97513;-64
2021/11/05 00:57:04;;;;;;;6.30;2.50;;;;;;;7.90;64.55;99277.90;113322;1194;137090;-62
2021/11/05 00:59:50;;;;;;;3.90;2.40;;;;;;;7.89;64.57;99285.70;113466;1195;108703;-62
2021/11/05 01:02:38;;;;;;;;;;;;;;;7.89;64.37;99289.86;113119;1194;137785;-63
2021/11/05 01:05:28;;;;;;;2.70;2.10;;;;;;;7.88;64.63;99291.79;113566;1194;97985;-61
2021/11/05 01:08:15;;;;;;;8.60;2.80;;;;;;;7.86;64.65;99296.34;113253;1195;137316;-63
2021/11/05 01:11:02;;;;;;;3.90;2.70;;;;;;;7.84;64.65;99309.05;113420;1195;111623;-63
2021/11/05 01:13:48;;;;;;;3.70;2.30;;;;;;;7.82;64.65;99303.08;113387;1194;108724;-63
2021/11/05 01:16:35;;;;;;;3.40;2.40;;;;;;;7.81;64.57;99306.93;113254;1194;137185;-64
2021/11/05 01:19:22;;;;;;;4.50;2.20;;;;;;;7.82;64.76;99308.61;113408;1195;98197;-63
2021/11/05 01:22:10;;;;;;;3.50;2.50;;;;;;;7.83;64.67;99309.27;113286;1194;137023;-63
2021/11/05 01:24:57;;;;;;;4.00;2.20;;;;;;;7.86;64.59;99318.88;114811;1194;111852;-63
2021/11/05 01:27:45;;;;;;;4.00;2.10;;;;;;;7.87;64.64;99322.64;114610;1194;137715;-64
2021/11/05 01:30:32;;;;;;;3.00;2.20;;;;;;;7.88;64.52;99315.66;113916;1194;107553;-62
2021/11/05 01:33:19;;;;;;;3.70;2.70;;;;;;;7.89;64.34;99317.37;114614;1194;138150;-63
2021/11/05 01:36:06;;;;;;;3.30;2.10;;;;;;;7.91;64.52;99320.97;114046;1193;97545;-63
2021/11/05 01:38:53;;;;;;;2.80;2.00;;;;;;;7.93;64.40;99325.25;113584;1194;137749;-63
2021/11/05 01:41:40;;;;;;;2.60;2.10;;;;;;;7.94;64.32;99327.62;114693;1194;108599;-63
2021/11/05 01:44:27;;;;;;;2.60;2.10;;;;;;;7.94;64.30;99323.27;114572;1194;138006;-63
2021/11/05 01:47:14;;;;;;;2.80;2.30;;;;;;;7.94;64.23;99328.46;114753;1194;95829;-63
2021/11/05 01:50:03;;;;;;;3.30;2.30;;;;;;;7.94;64.22;99314.46;114056;1194;95469;-63
2021/11/05 01:52:51;;;;;;;3.60;2.00;;;;;;;7.93;64.28;99328.69;113246;1195;138608;-63
2021/11/05 01:55:39;;;;;;;3.60;2.00;;;;;;;7.94;64.25;99331.58;113494;1194;106883;-63
2021/11/05 01:58:26;;;;;;;;;;;;;;;7.96;64.07;99322.69;113532;1194;137446;-63
2021/11/05 02:01:12;;;;;;;2.90;2.00;;;;;;;7.98;64.06;99322.10;114726;1194;95889;-61
2021/11/05 02:03:59;;;;;;;2.90;2.10;;;;;;;7.99;63.88;99330.36;113500;1194;137257;-64
2021/11/05 02:06:47;;;;;;;2.40;2.10;;;;;;;8.00;63.80;99330.15;113391;1194;112541;-63
2021/11/05 02:09:38;;;;;;;2.70;1.90;;;;;;;8.00;63.71;99325.14;113351;1194;137767;-63
2021/11/05 02:12:25;;;;;;;2.50;1.90;;;;;;;8.00;63.80;99337.77;113345;1195;108869;-64
2021/11/05 02:15:14;;;;;;;2.40;1.90;;;;;;;8.02;63.76;99335.44;114615;1194;138302;-62
2021/11/05 02:18:02;;;;;;;3.30;1.80;;;;;;;8.04;63.39;99344.52;114783;1194;95780;-62
2021/11/05 02:20:54;;;;;;;2.40;1.90;;;;;;;8.08;63.37;99346.66;114605;1194;137760;-63
2021/11/05 02:23:41;;;;;;;2.60;1.90;;;;;;;8.12;63.16;99340.11;114770;1193;108870;-62
2021/11/05 02:26:28;;;;;;;2.90;2.00;;;;;;;8.13;63.19;99349.92;114651;1194;137294;-63
2021/11/05 02:29:14;;;;;;;3.40;2.10;;;;;;;8.14;63.14;99353.69;114767;1194;96294;-62
2021/11/05 02:32:03;;;;;;;5.50;2.20;;;;;;;8.16;63.00;99351.39;114817;1194;95635;-62
2021/11/05 02:34:51;;;;;;;2.80;1.80;;;;;;;8.16;62.93;99355.00;114663;1194;137110;-62
2021/11/05 02:37:38;;;;;;;2.30;1.60;;;;;;;8.19;63.00;99350.56;114754;1194;109666;-62
2021/11/05 02:40:24;;;;;;;3.00;1.80;;;;;;;8.21;62.90;99349.81;114645;1194;137481;-62
2021/11/05 02:42:58;;;;;;;2.40;1.60;;;;;;;8.23;62.67;99348.17;114515;1196;95887;-62
2021/11/05 02:45:49;;;;;;;2.80;1.60;;;;;;;8.24;62.59;99349.53;114501;1195;137371;-62
2021/11/05 02:48:36;;;;;;;2.70;1.90;;;;;;;8.24;62.55;99346.05;114630;1195;111551;-62
2021/11/05 02:51:23;;;;;;;3.00;1.90;;;;;;;8.23;62.65;99347.98;114450;1196;137181;-62
2021/11/05 02:54:09;;;;;;;3.60;1.80;;;;;;;8.24;62.64;99346.92;114639;1195;107364;-62
2021/11/05 02:56:57;;;;;;;2.10;1.70;;;;;;;8.23;62.69;99361.66;114521;1195;137960;-63
2021/11/05 02:59:44;;;;;;;3.00;1.80;;;;;;;8.24;62.69;99359.73;114639;1195;95882;-62
2021/11/05 03:02:31;;;;;;;3.40;1.60;;;;;;;8.26;62.65;99367.30;114573;1195;137994;-63
2021/11/05 03:05:17;;;;;;;1.90;1.40;;;;;;;8.27;62.51;99358.59;114702;1195;107337;-62
2021/11/05 03:08:04;;;;;;;2.90;1.80;;;;;;;8.27;62.21;99367.42;114650;1195;108781;-62
2021/11/05 03:10:51;;;;;;;3.20;2.10;;;;;;;8.28;62.40;99363.26;114479;1196;137790;-62
2021/11/05 03:13:43;;;;;;;2.30;2.00;;;;;;;8.29;62.39;99360.45;114589;1196;95802;-63
2021/11/05 03:16:31;;;;;;;1.90;1.60;;;;;;;8.31;62.17;99373.88;114566;1196;137059;-62
2021/11/05 03:19:17;;;;;;;;;;;;;;;8.31;62.25;99372.84;114702;1195;107537;-63
2021/11/05 03:22:04;;;;;;;1.90;1.70;;;;;;;8.31;62.40;99377.68;114526;1196;123474;-63
2021/11/05 03:24:52;;;;;;;2.40;1.90;;;;;;;8.31;62.28;99388.59;114605;1195;95727;-62
2021/11/05 03:27:40;;;;;;;2.10;1.60;;;;;;;8.33;62.27;99380.21;113714;1196;138036;-63
2021/11/05 03:30:27;;;;;;;2.80;1.80;;;;;;;8.34;62.17;99381.89;113217;1196;112266;-62
2021/11/05 03:33:14;;;;;;;3.90;2.00;;;;;;;8.35;62.24;99410.82;113023;1196;137425;-62
2021/11/05 03:36:01;;;;;;;2.20;1.90;;;;;;;8.33;62.22;99391.27;113112;1195;107902;-63
2021/11/05 03:38:49;;;;;;;2.90;1.90;;;;;;;8.32;62.34;99397.38;112953;1196;138008;-64
2021/11/05 03:41:36;;;;;;;2.90;2.10;;;;;;;8.31;62.22;99394.98;113910;1195;97556;-64
2021/11/05 03:44:22;;;;;;;3.20;2.30;;;;;;;8.29;62.22;99392.84;114691;1195;110925;-64
2021/11/05 03:47:09;;;;;;;2.10;1.80;;;;;;;8.28;62.38;99395.29;113109;1195;136804;-64
2021/11/05 03:49:56;;;;;;;3.30;2.20;;;;;;;8.28;62.50;99396.16;113188;1195;107601;-64
2021/11/05 03:52:44;;;;;;;2.70;2.00;;;;;;;8.29;62.21;99402.86;113041;1195;137978;-63
2021/11/05 03:55:31;;;;;;;2.50;1.90;;;;;;;8.30;62.35;99399.35;113291;1195;99636;-63
2021/11/05 03:58:18;;;;;;;2.70;2.10;;;;;;;8.31;62.31;99407.80;113127;1195;137312;-64
2021/11/05 04:01:05;;;;;;;2.20;1.90;;;;;;;8.30;62.14;99402.30;114693;1195;108714;-63
2021/11/05 04:03:52;;;;;;;3.80;2.00;;;;;;;8.29;62.13;99405.80;114511;1195;137197;-64
2021/11/05 04:06:39;;;;;;;3.20;2.20;;;;;;;8.29;62.10;99414.83;114512;1196;95876;-64
2021/11/05 04:09:26;;;;;;;2.80;1.90;;;;;;;8.27;62.20;99423.90;114591;1195;138253;-64
2021/11/05 04:12:13;;;;;;;3.80;2.10;;;;;;;8.26;62.11;99414.73;113565;1195;110010;-63
2021/11/05 04:15:00;;;;;;;2.30;1.90;;;;;;;8.26;62.24;99431.02;113066;1195;137248;-64
2021/11/05 04:17:47;;;;;;;2.20;1.70;;;;;;;8.26;62.28;99423.41;113129;1195;108326;-64
2021/11/05 04:20:34;;;;;;;2.90;1.90;;;;;;;8.28;62.29;99431.81;113199;1195;97494;-63
2021/11/05 04:23:21;;;;;;;2.90;2.00;;;;;;;8.29;62.25;99434.21;113111;1195;137483;-63
2021/11/05 04:26:08;;;;;;;5.20;2.00;;;;;;;8.29;62.29;99438.20;113205;1195;112002;-63
2021/11/05 04:28:56;;;;;;;2.20;1.70;;;;;;;8.28;62.30;99441.88;113040;1195;137350;-63
2021/11/05 04:31:44;;;;;;;2.40;2.10;;;;;;;8.28;62.33;99435.81;113276;1195;107505;-64
2021/11/05 04:34:31;;;;;;;3.80;2.30;;;;;;;8.29;62.35;99441.83;114597;1195;137441;-64
2021/11/05 04:37:18;;;;;;;2.60;2.10;;;;;;;8.31;62.33;99441.76;114685;1195;96881;-62
2021/11/05 04:40:05;;;;;;;2.90;2.10;;;;;;;8.31;62.36;99440.89;114532;1195;137202;-64
2021/11/05 04:42:52;;;;;;;2.50;2.10;;;;;;;8.31;62.34;99446.08;114031;1194;107448;-64
2021/11/05 04:45:38;;;;;;;2.10;1.80;;;;;;;8.33;62.15;99443.40;113035;1195;138344;-63
2021/11/05 04:48:26;;;;;;;2.90;2.20;;;;;;;8.37;62.12;99453.87;113173;1195;97551;-64
2021/11/05 04:51:13;;;;;;;2.40;2.10;;;;;;;8.39;62.15;99468.86;112829;1195;137734;-64
2021/11/05 04:54:00;;;;;;;3.50;2.00;;;;;;;8.38;61.88;99471.48;113111;1195;112088;-64
2021/11/05 04:56:47;;;;;;;3.70;2.00;;;;;;;8.38;61.97;99473.93;113919;1195;108406;-64
2021/11/05 04:59:35;;;;;;;2.70;2.40;;;;;;;8.36;61.99;99486.48;113045;1195;137155;-64
2021/11/05 05:02:21;;;;;;;2.80;2.20;;;;;;;8.33;61.96;99489.66;114647;1195;95505;-64
2021/11/05 05:05:08;;;;;;;3.00;2.50;;;;;;;8.33;62.22;99488.95;113051;1195;137057;-63
2021/11/05 05:07:57;;;;;;;2.80;2.30;;;;;;;8.33;62.12;99488.63;114718;1195;112896;-63
2021/11/05 05:10:44;;;;;;;3.20;2.30;;;;;;;8.32;61.99;99496.63;114517;1195;137520;-63
2021/11/05 05:13:30;;;;;;;3.00;2.20;;;;;;;8.33;62.08;99497.98;114660;1195;108637;-63
2021/11/05 05:16:17;;;;;;;3.20;2.20;;;;;;;8.33;62.08;99500.91;114580;1195;138052;-64
2021/11/05 05:19:04;;;;;;;2.90;2.30;;;;;;;8.35;62.05;99508.69;114723;1195;95842;-63
2021/11/05 05:21:51;;;;;;;3.60;2.60;;;;;;;8.35;61.98;99511.79;113052;1193;137573;-64
2021/11/05 05:24:38;;;;;;;3.10;2.40;;;;;;;8.37;61.90;99511.02;113146;1195;108606;-64
2021/11/05 05:27:26;;;;;;;3.20;2.60;;;;;;;8.36;61.80;99513.66;113090;1195;137415;-64
2021/11/05 05:30:14;;;;;;;5.00;2.60;;;;;;;8.33;61.90;99523.09;113186;1195;97634;-64
2021/11/05 05:33:02;;;;;;;4.20;2.50;;;;;;;8.32;61.95;99525.03;113154;1195;97118;-64
2021/11/05 05:35:49;;;;;;;;;;;;;;;8.31;61.94;99537.20;113565;1195;136910;-63
2021/11/05 05:38:36;;;;;;;5.70;2.70;;;;;;;8.28;61.88;99540.91;113206;1195;108366;-63
2021/11/05 05:41:26;;;;;;;4.40;2.80;;;;;;;8.26;61.82;99542.38;114416;1195;137404;-64
2021/11/05 05:44:13;;;;;;;3.60;2.70;;;;;;;8.26;61.83;99561.09;114592;1195;96938;-64
2021/11/05 05:47:02;;;;;;;4.60;2.60;;;;;;;8.28;61.89;99550.30;114581;1195;137120;-64
2021/11/05 05:49:51;;;;;;;4.00;3.20;;;;;;;8.29;61.90;99551.11;114083;1195;110221;-64
2021/11/05 05:52:42;;;;;;;6.20;2.80;;;;;;;8.29;61.82;99561.67;114403;1195;137139;-64
2021/11/05 05:55:29;;;;;;;4.60;3.10;;;;;;;8.30;61.78;99572.02;113170;1195;107273;-64
2021/11/05 05:58:18;;;;;;;5.50;3.40;;;;;;;8.28;61.74;99585.45;114534;1195;137847;-64
2021/11/05 06:01:05;;;;;;;3.60;2.90;;;;;;;8.27;61.84;99576.48;113970;1195;97558;-64
2021/11/05 06:03:52;;;;;;;3.70;3.00;;;;;;;8.26;61.99;99580.66;113021;1181;137203;-63
2021/11/05 06:06:38;;;;;;;6.80;3.60;;;;;;;8.25;61.99;99591.06;113112;1195;108826;-64
2021/11/05 06:09:25;;;;;;;5.60;3.00;;;;;;;8.24;62.07;99589.71;113046;1195;138635;-66
2021/11/05 06:12:12;;;;;;;4.80;2.90;;;;;;;8.23;62.06;99600.84;114697;1195;95837;-65
2021/11/05 06:14:59;;;;;;;3.60;3.00;;;;;;;8.21;62.03;99603.66;114599;1195;95927;-66
2021/11/05 06:17:46;;;;;;;4.40;3.10;;;;;;;8.21;61.98;99616.50;114533;1195;137268;-64
2021/11/05 06:20:33;;;;;;;4.40;3.40;;;;;;;8.19;62.15;99628.84;113501;1195;108908;-64
2021/11/05 06:23:20;;;;;;;3.70;3.10;;;;;;;8.17;62.25;99629.09;113070;1195;137217;-64
2021/11/05 06:26:08;;;;;;;7.70;4.00;;;;;;;8.15;62.18;99628.98;113108;1196;97516;-64
2021/11/05 06:28:55;;;;;;;5.00;3.70;;;;;;;8.13;62.38;99633.38;112953;1195;136811;-65
2021/11/05 06:31:42;;;;;;;4.30;3.70;;;;;;;8.09;62.40;99638.00;113053;1195;111664;-67
2021/11/05 06:34:29;;;;;;;5.10;3.60;;;;;;;8.06;62.47;99635.16;113019;1195;137899;-64
2021/11/05 06:37:16;;;;;;;4.90;3.80;;;;;;;8.06;62.51;99643.63;114629;1195;108514;-65
2021/11/05 06:40:10;;;;;;;6.20;3.60;;;;;;;8.05;62.57;99647.13;113739;1195;138838;-64
2021/11/05 06:42:57;;;;;;;4.90;3.80;;;;;;;8.05;62.56;99644.38;114608;1195;95718;-64
2021/11/05 06:45:44;;;;;;;5.10;3.60;;;;;;;8.03;62.58;99647.17;113710;1195;138162;-64
2021/11/05 06:48:31;;;;;;;6.20;3.80;;;;;;;8.03;62.53;99653.27;113191;1196;108556;-65
2021/11/05 06:51:18;;;;;;;5.00;3.70;;;;;;;8.01;62.53;99660.06;113145;1196;107818;-64
2021/11/05 06:54:05;;;;;;;7.00;3.70;;;;;;;8.00;62.54;99659.77;112955;1195;137107;-64
2021/11/05 06:56:52;;;;;;;5.10;3.50;;;;;;;7.97;62.58;99667.30;113102;1195;97501;-64
2021/11/05 06:59:39;;;;;;;5.80;4.10;;;;;;;7.94;62.69;99661.00;113595;1185;137707;-64
2021/11/05 07:02:27;;;;;;;6.90;3.70;;;;;;;7.92;62.64;99688.40;113209;1195;108790;-64
2021/11/05 07:05:15;;;;;;;5.50;4.10;;;;;;;7.91;62.60;99677.88;113017;1196;137870;-65
2021/11/05 07:08:02;;;;;;;5.90;3.60;;;;;;;7.92;62.53;99684.97;114614;1195;95966;-62
2021/11/05 07:10:49;;;;;;;4.20;3.50;;;;;;;7.89;62.63;99676.35;113709;1195;137098;-64
2021/11/05 07:13:36;;;;;;;4.90;3.90;;;;;;;7.89;62.57;99674.29;113212;1195;112389;-63
2021/11/05 07:16:23;;;;;;;5.10;4.00;;;;;;;7.87;62.69;99681.23;112998;1196;137974;-63
2021/11/05 07:19:10;;;;;;;4.50;3.50;;;;;;;7.86;62.64;99693.58;113106;1195;108614;-63
2021/11/05 07:22:02;;;;;;;5.00;3.50;;;;;;;7.84;62.63;99698.31;114511;1195;137607;-64
2021/11/05 07:24:49;;;;;;;4.80;3.50;;;;;;;7.85;62.69;99694.29;114585;1195;95783;-64
2021/11/05 07:27:36;;;;;;;4.90;3.50;;;;;;;7.87;62.53;99687.83;114596;1195;112397;-64
2021/11/05 07:30:23;;;;;;;5.40;4.20;;;;;;;7.88;62.42;99694.54;114149;1196;137093;-64
2021/11/05 07:33:10;;;;;;;6.40;3.70;;;;;;;7.92;62.40;99698.80;113093;1196;108738;-65
2021/11/05 07:35:57;;;;;;;6.80;4.00;;;;;;;7.93;62.39;99700.68;112905;1196;137302;-65
2021/11/05 07:38:43;;;;;;;7.90;3.80;;;;;;;7.96;62.45;99693.48;112893;1195;97559;-64
2021/11/05 07:41:30;;;;;;;7.20;4.10;;;;;;;7.99;62.31;99699.81;112959;1197;137124;-65
2021/11/05 07:44:17;;;;;;;5.90;4.20;;;;;;;8.04;62.41;99701.70;113208;1195;106442;-64
2021/11/05 07:47:05;;;;;;;;;;;;;;;8.11;62.27;99713.98;113111;1196;137404;-64
2021/11/05 07:49:52;;;;;;;7.60;4.30;;;;;;;8.13;62.17;99710.45;113195;1195;97519;-64
2021/11/05 07:52:39;;;;;;;;;;;;;;;8.17;62.12;99709.95;112919;1196;138125;-65
2021/11/05 07:55:26;;;;;;;6.10;4.30;;;;;;;8.65;62.02;99711.58;113101;1196;111473;-65
2021/11/05 07:58:13;;;;;;;;;;;;;;;9.34;60.94;99715.27;112967;1196;137832;-65
2021/11/05 08:00:59;;;;;;;5.90;4.00;;;;;;;10.02;59.73;99721.13;112980;1196;111285;-65
2021/11/05 08:03:46;;;;;;;7.10;3.90;;;;;;;10.70;57.87;99726.23;113135;1196;97549;-65
2021/11/05 08:06:34;;;;;;;7.30;4.40;;;;;;;11.23;56.99;99727.69;113089;1196;137203;-65
2021/11/05 08:09:21;;;;;;;4.90;3.70;;;;;;;11.45;56.06;99737.87;113123;1195;111145;-66
2021/11/05 08:12:08;;;;;;;20.20;18.90;;;;;;;11.42;54.94;99744.40;113659;1195;137855;-64
2021/11/05 08:14:55;;;;;;;7.80;3.60;;;;;;;11.59;55.14;99742.14;113098;1195;108659;-65
2021/11/05 08:17:43;;;;;;;7.00;4.00;;;;;;;11.62;54.15;99740.75;114406;1195;138875;-65
2021/11/05 08:20:30;;;;;;;5.00;3.60;;;;;;;11.41;54.28;99753.19;113144;1195;98115;-64
2021/11/05 08:23:17;;;;;;;7.20;3.90;;;;;;;11.13;54.72;99750.90;112921;1195;138563;-63
2021/11/05 08:26:06;;;;;;;5.40;3.70;;;;;;;10.86;54.71;99756.73;112979;1196;108616;-65
2021/11/05 08:28:53;;;;;;;6.40;4.20;;;;;;;10.59;55.48;99755.20;112948;1196;137595;-65
2021/11/05 08:31:40;;;;;;;8.00;4.10;;;;;;;10.38;55.70;99752.21;113016;1196;97649;-64
2021/11/05 08:34:27;;;;;;;6.40;3.90;;;;;;;10.20;56.27;99752.90;112909;1197;138083;-65
2021/11/05 08:37:14;;;;;;;5.10;4.00;;;;;;;10.06;56.28;99758.31;113087;1196;111789;-64
2021/11/05 08:40:03;;;;;;;7.30;4.50;;;;;;;9.88;56.72;99758.63;113064;1195;108187;-65
2021/11/05 08:42:50;;;;;;;6.30;3.70;;;;;;;9.74;57.23;99772.71;112938;1195;137584;-66
2021/11/05 08:45:38;;;;;;;8.30;4.40;;;;;;;9.65;57.60;99787.89;114517;1195;96189;-64
2021/11/05 08:48:25;;;;;;;8.50;4.40;;;;;;;9.68;57.83;99786.41;113095;1196;137651;-64
2021/11/05 08:51:13;;;;;;;7.60;4.20;;;;;;;9.72;57.84;99799.52;113011;1196;112384;-64
2021/11/05 08:53:59;;;;;;;8.20;5.00;;;;;;;9.64;57.98;99813.11;112948;1195;137229;-64
2021/11/05 08:56:47;;;;;;;6.10;4.60;;;;;;;9.56;58.20;99829.90;113112;1195;108683;-65
2021/11/05 08:59:35;;;;;;;;;;;;;;;9.49;58.48;99836.38;113911;1195;137339;-64
2021/11/05 09:02:22;;;;;;;6.60;4.90;;;;;;;9.46;58.52;99840.49;113057;1195;97505;-65
2021/11/05 09:05:09;;;;;;;8.70;4.60;;;;;;;9.45;58.72;99826.64;112904;1196;138177;-64
2021/11/05 09:07:56;;;;;;;8.40;4.70;;;;;;;9.53;58.60;99825.51;112803;1196;108697;-65
2021/11/05 09:10:43;;;;;;;7.40;4.30;;;;;;;9.61;58.42;99818.81;112967;1195;137812;-65
2021/11/05 09:13:31;;;;;;;9.30;4.70;;;;;;;9.64;58.31;99816.06;113012;1196;97537;-65
2021/11/05 09:16:18;;;;;;;9.00;4.70;;;;;;;9.68;58.22;99827.04;113035;1187;97470;-65
2021/11/05 09:19:07;;;;;;;6.00;4.00;;;;;;;9.75;58.14;99823.16;112991;1195;137509;-65
2021/11/05 09:21:54;;;;;;;6.20;4.00;;;;;;;9.81;58.27;99832.50;114017;1195;108599;-65
2021/11/05 09:24:41;;;;;;;6.00;4.00;;;;;;;9.83;58.10;99828.79;113025;1196;137349;-65
2021/11/05 09:27:29;;;;;;;8.90;4.20;;;;;;;9.83;58.24;99835.90;113115;1196;97508;-66
2021/11/05 09:30:18;;;;;;;5.20;4.10;;;;;;;9.86;58.30;99831.60;112979;1196;138060;-65
2021/11/05 09:33:06;;;;;;;7.10;4.00;;;;;;;9.86;58.21;99837.00;113122;1195;112358;-65
2021/11/05 09:35:53;;;;;;;6.50;4.20;;;;;;;9.77;58.21;99839.58;114582;1195;138624;-65
2021/11/05 09:38:40;;;;;;;5.00;3.60;;;;;;;9.68;58.39;99835.03;114410;1195;139708;-65
2021/11/05 09:41:27;;;;;;;6.20;4.70;;;;;;;9.56;58.47;99848.30;114572;1195;96279;-65
2021/11/05 09:44:14;;;;;;;6.40;4.40;;;;;;;9.47;58.80;99849.13;113429;1196;137632;-65
2021/11/05 09:47:03;;;;;;;;;;;;;;;9.42;59.03;99852.94;114660;1195;112388;-65
2021/11/05 09:49:52;;;;;;;8.00;4.10;;;;;;;9.37;59.17;99870.66;114619;1195;108316;-65
2021/11/05 09:52:39;;;;;;;7.60;4.70;;;;;;;9.30;59.32;99875.20;114490;1195;137055;-65
2021/11/05 09:55:27;;;;;;;7.30;4.90;;;;;;;9.26;59.52;99881.08;114623;1196;97072;-65
2021/11/05 09:58:14;;;;;;;11.60;5.30;;;;;;;9.22;59.58;99882.77;114553;1195;136987;-65
2021/11/05 10:01:01;;;;;;;9.70;4.70;;;;;;;9.19;59.75;99886.16;114498;1195;112096;-65
2021/11/05 10:03:48;;;;;;;7.10;4.10;;;;;;;9.15;59.92;99880.92;114268;1195;137838;-65
2021/11/05 10:06:35;;;;;;;;;;;;;;;9.10;60.02;99884.52;113078;1195;108617;-65
2021/11/05 10:09:23;;;;;;;8.40;4.90;;;;;;;9.04;60.20;99902.23;112925;1196;123730;-65
2021/11/05 10:12:16;;;;;;;5.80;4.60;;;;;;;9.02;60.47;99914.80;113045;1196;97660;-64
2021/11/05 10:15:06;;;;;;;7.00;5.00;;;;;;;9.00;60.54;99910.19;114498;1195;137402;-65
2021/11/05 10:18:09;;;;;;;8.80;5.10;;;;;;;8.99;60.75;99923.21;114563;1195;107413;-65
2021/11/05 10:21:25;;;;;;;6.60;4.70;;;;;;;9.00;60.87;99927.86;114140;1195;138100;-65
2021/11/05 10:24:14;;;;;;;7.80;4.90;;;;;;;8.99;60.86;99925.64;112938;1195;97575;-65
2021/11/05 10:27:00;;;;;;;6.10;4.80;;;;;;;8.97;60.96;99927.92;114482;1187;137170;-65
2021/11/05 10:29:51;;;;;;;7.40;4.50;;;;;;;8.96;61.11;99938.90;113030;1195;112191;-65
2021/11/05 10:32:41;;;;;;;7.70;5.20;;;;;;;8.94;61.24;99934.63;114516;1195;139840;-64
2021/11/05 10:35:29;;;;;;;9.60;5.00;;;;;;;8.93;61.31;99938.80;114558;1195;108145;-64
2021/11/05 10:38:17;;;;;;;7.90;4.60;;;;;;;8.93;61.39;99941.40;114343;1196;138263;-67
2021/11/05 10:41:06;;;;;;;6.70;4.60;;;;;;;9.02;61.58;99944.79;113025;1195;97628;-76
2021/11/05 10:43:59;;;;;;;7.40;4.50;;;;;;;9.18;61.54;99950.37;113119;1195;112193;-70
2021/11/05 10:46:46;;;;;;;9.00;4.60;;;;;;;9.30;61.41;99961.79;112988;1195;137241;-68
2021/11/05 10:49:40;;;;;;;8.00;3.50;;;;;;;9.37;61.59;99968.15;113039;1197;108702;-66
2021/11/05 10:52:27;;;;;;;6.90;3.00;;;;;;;9.48;61.26;99960.85;114443;1195;137723;-63
2021/11/05 10:55:14;;;;;;;6.60;3.00;;;;;;;9.49;61.35;99965.69;114612;1195;95584;-64
2021/11/05 10:58:01;;;;;;;3.80;3.00;;;;;;;9.45;61.50;99969.48;114582;1195;137330;-64
2021/11/05 11:00:51;;;;;;;4.80;3.10;;;;;;;9.35;62.02;99963.19;113845;1195;108856;-66
2021/11/05 11:03:47;;;;;;;4.50;3.00;;;;;;;9.28;62.27;99980.08;112991;1195;138001;-66
2021/11/05 11:06:46;;;;;;;3.10;2.50;;;;;;;9.23;62.47;99982.14;114495;1195;96054;-65
2021/11/05 11:09:35;;;;;;;3.20;2.40;;;;;;;9.18;62.67;99981.42;113017;1196;137015;-65
2021/11/05 11:12:32;;;;;;;3.00;2.60;;;;;;;9.25;62.81;99987.63;114673;1195;112289;-65
2021/11/05 11:15:33;;;;;;;;;;;;;;;9.30;62.82;99985.70;113430;1196;137681;-65
2021/11/05 11:18:21;;;;;;;2.90;2.40;;;;;;;9.34;62.85;99988.05;112820;1196;108417;-65
2021/11/05 11:21:10;;;;;;;2.50;2.00;;;;;;;9.33;62.63;99984.08;113309;1195;137280;-65
2021/11/05 11:23:58;;;;;;;2.60;2.00;;;;;;;9.28;62.47;99980.77;114481;1195;96695;-65
2021/11/05 11:26:48;;;;;;;2.20;1.80;;;;;;;9.25;62.62;99987.61;114042;1195;137341;-65
2021/11/05 11:29:35;;;;;;;2.80;2.00;;;;;;;9.24;62.64;99995.62;114536;1195;109162;-65
2021/11/05 11:32:22;;;;;;;3.30;1.70;;;;;;;9.22;62.77;99995.89;114008;1195;138068;-66
2021/11/05 11:35:10;;;;;;;4.10;2.20;;;;;;;9.18;62.81;100001.21;114625;1195;95757;-64
2021/11/05 11:37:59;;;;;;;2.30;1.70;;;;;;;9.18;62.92;99998.09;114548;1195;95876;-63
2021/11/05 11:40:48;;;;;;;1.80;1.40;;;;;;;9.18;62.89;99993.24;113632;1195;137251;-65
2021/11/05 11:43:38;;;;;;;2.40;1.40;;;;;;;9.19;62.74;99999.61;114579;1195;107501;-65
2021/11/05 11:46:25;;;;;;;2.70;1.50;;;;;;;9.17;62.86;100010.06;113985;1195;138525;-64
2021/11/05 11:49:39;;;;;;;1.80;1.30;;;;;;;9.17;63.02;100004.71;114023;1195;96148;-64
2021/11/05 11:52:33;;;;;;;6.00;1.60;;;;;;;9.16;62.94;100011.16;114022;1195;137583;-65
2021/11/05 11:55:24;;;;;;;2.00;1.40;;;;;;;9.15;62.97;100014.10;113413;1196;112826;-65
2021/11/05 11:58:18;;;;;;;1.30;1.20;;;;;;;9.13;63.03;100012.60;114474;1195;137319;-65
2021/11/05 12:01:23;;;;;;;2.30;1.30;;;;;;;9.12;63.01;100019.05;114584;1195;108521;-65
2021/11/05 12:04:09;;;;;;;1.90;1.30;;;;;;;9.10;63.07;100022.05;113882;1195;137510;-64
2021/11/05 12:07:01;;;;;;;2.10;1.20;;;;;;;9.11;63.08;100020.14;114356;1195;96231;-65
2021/11/05 12:09:47;;;;;;;2.90;1.60;;;;;;;9.13;63.07;100022.15;114257;1195;137744;-64
2021/11/05 12:12:34;;;;;;;1.70;1.30;;;;;;;9.18;63.16;100023.59;114604;1195;108749;-64
2021/11/05 12:15:21;;;;;;;1.50;1.10;;;;;;;9.20;62.93;100021.27;114370;1195;137779;-65
2021/11/05 12:18:10;;;;;;;2.90;1.20;;;;;;;9.20;62.96;100031.16;113073;1195;97590;-65
2021/11/05 12:21:17;;;;;;;1.50;1.10;;;;;;;9.17;62.93;100034.71;114495;1195;137723;-65
2021/11/05 12:24:24;;;;;;;3.10;1.60;;;;;;;9.11;63.00;100038.86;114609;1195;112239;-65
2021/11/05 12:27:16;;;;;;;2.40;1.40;;;;;;;9.06;63.20;100037.61;113582;1195;138871;-65
2021/11/05 12:30:10;;;;;;;3.40;1.30;;;;;;;9.04;63.30;100038.22;114471;1195;108860;-66
2021/11/05 12:33:30;;;;;;;2.40;1.30;;;;;;;9.00;63.32;100051.50;114139;1195;139525;-64
2021/11/05 12:36:17;;;;;;;2.20;1.20;;;;;;;8.98;63.58;100051.75;113189;1195;97514;-65
2021/11/05 12:39:06;;;;;;;2.70;1.50;;;;;;;8.97;63.64;100057.81;112827;1195;137435;-65
2021/11/05 12:42:04;;;;;;;2.10;1.50;;;;;;;8.99;63.60;100059.00;114596;1195;108615;-65
2021/11/05 12:45:01;;;;;;;2.90;1.80;;;;;;;8.97;63.57;100073.79;114330;1195;137958;-65
2021/11/05 12:47:52;;;;;;;1.50;1.30;;;;;;;8.95;63.64;100072.61;113494;1195;97478;-65
2021/11/05 12:50:44;;;;;;;4.30;1.60;;;;;;;8.95;63.71;100071.06;114349;1195;137355;-65
2021/11/05 12:53:31;;;;;;;1.40;1.30;;;;;;;8.94;63.75;100075.77;113319;1195;112138;-65
2021/11/05 12:56:21;;;;;;;1.60;1.40;;;;;;;8.92;63.70;100078.77;112974;1195;107005;-64
2021/11/05 12:59:11;;;;;;;1.60;1.30;;;;;;;8.93;63.79;100076.33;114095;1195;108374;-65
2021/11/05 13:02:01;;;;;;;2.20;1.60;;;;;;;8.96;63.86;100079.18;112966;1195;97602;-64
2021/11/05 13:04:52;;;;;;;2.40;1.60;;;;;;;8.97;63.85;100084.87;112942;1195;137426;-65
2021/11/05 13:07:39;;;;;;;3.10;2.40;;;;;;;8.96;63.87;100078.48;114041;1195;112457;-65